createdAt,value
2018-05-07T00:00:26.041Z,71.98
2018-05-07T00:01:26.070Z,71.94
2018-05-07T00:02:26.085Z,71.84
2018-05-07T00:03:26.113Z,71.75
2018-05-07T00:04:26.163Z,71.66
2018-05-07T00:05:26.149Z,72.42
2018-05-07T00:06:26.182Z,72.32
2018-05-07T00:07:26.198Z,72.23
2018-05-07T00:08:26.231Z,72.23
2018-05-07T00:09:26.269Z,72.23
2018-05-07T00:10:26.260Z,72.13
2018-05-07T00:11:26.275Z,72.23
2018-05-07T00:12:26.305Z,72.23
2018-05-07T00:13:26.328Z,72.32
2018-05-07T00:14:26.339Z,72.42
2018-05-07T00:15:26.363Z,72.23
2018-05-07T00:16:26.388Z,72.32
2018-05-07T00:17:26.401Z,72.23
2018-05-07T00:18:26.427Z,72.23
2018-05-07T00:19:26.450Z,72.99
2018-05-07T00:20:26.465Z,72.90
2018-05-07T00:21:26.497Z,72.80
2018-05-07T00:22:26.513Z,72.80
2018-05-07T00:23:26.530Z,72.61
2018-05-07T00:24:26.554Z,72.52
2018-05-07T00:25:26.573Z,72.80
2018-05-07T00:26:26.591Z,72.99
2018-05-07T00:27:26.623Z,73.38
2018-05-07T00:28:26.636Z,73.28
2018-05-07T00:29:26.662Z,73.09
2018-05-07T00:30:26.684Z,72.99
2018-05-07T00:31:26.707Z,73.19
2018-05-07T00:32:26.718Z,74.05
2018-05-07T00:33:26.747Z,73.82
2018-05-07T00:34:26.765Z,73.95
2018-05-07T00:35:26.792Z,73.86
2018-05-07T00:36:26.810Z,74.01
2018-05-07T00:37:26.822Z,74.20
2018-05-07T00:38:26.854Z,74.30
2018-05-07T00:39:26.865Z,73.72
2018-05-07T00:40:26.888Z,73.72
2018-05-07T00:41:26.914Z,74.20
2018-05-07T00:42:26.931Z,73.91
2018-05-07T00:43:26.956Z,74.01
2018-05-07T00:44:26.976Z,74.68
2018-05-07T00:45:26.994Z,74.40
2018-05-07T00:46:27.019Z,74.49
2018-05-07T00:47:27.037Z,74.20
2018-05-07T00:48:27.064Z,74.49
2018-05-07T00:49:27.076Z,74.49
2018-05-07T00:50:27.101Z,74.87
2018-05-07T00:51:27.175Z,74.77
2018-05-07T00:52:27.139Z,74.77
2018-05-07T00:53:27.168Z,74.58
2018-05-07T00:54:27.187Z,74.97
2018-05-07T00:55:27.205Z,74.87
2018-05-07T00:56:27.228Z,74.87
2018-05-07T00:57:27.249Z,74.97
2018-05-07T00:58:27.271Z,75.45
2018-05-07T00:59:27.289Z,75.16
2018-05-07T01:00:27.315Z,75.54
2018-05-07T01:01:27.333Z,75.45
2018-05-07T01:02:27.351Z,75.16
2018-05-07T01:03:27.370Z,75.93
2018-05-07T01:04:27.396Z,75.98
2018-05-07T01:05:27.418Z,76.31
2018-05-07T01:06:27.433Z,75.73
2018-05-07T01:07:27.463Z,76.02
2018-05-07T01:08:27.482Z,76.18
2018-05-07T01:09:27.501Z,75.98
2018-05-07T01:10:27.525Z,75.98
2018-05-07T01:11:27.538Z,76.46
2018-05-07T01:12:27.566Z,76.18
2018-05-07T01:13:27.582Z,76.75
2018-05-07T01:14:27.607Z,76.56
2018-05-07T01:15:27.629Z,76.56
2018-05-07T01:16:27.648Z,76.65
2018-05-07T01:17:27.672Z,76.46
2018-05-07T01:18:27.688Z,76.37
2018-05-07T01:19:27.708Z,76.27
2018-05-07T01:20:27.734Z,76.37
2018-05-07T01:21:27.746Z,76.56
2018-05-07T01:22:27.770Z,76.46
2018-05-07T01:23:27.794Z,76.65
2018-05-07T01:24:27.808Z,76.65
2018-05-07T01:25:27.838Z,76.94
2018-05-07T01:26:27.855Z,77.13
2018-05-07T01:27:27.873Z,77.04
2018-05-07T01:28:27.897Z,77.04
2018-05-07T01:29:27.923Z,77.04
2018-05-07T01:30:27.932Z,77.04
2018-05-07T01:31:27.965Z,77.23
2018-05-07T01:32:27.978Z,77.23
2018-05-07T01:33:28.005Z,77.04
2018-05-07T01:34:28.025Z,77.04
2018-05-07T01:35:28.042Z,76.94
2018-05-07T01:36:28.064Z,77.13
2018-05-07T01:37:28.083Z,77.33
2018-05-07T01:38:28.100Z,77.23
2018-05-07T01:39:28.133Z,77.48
2018-05-07T01:40:28.144Z,77.48
2018-05-07T01:41:28.166Z,77.09
2018-05-07T01:42:28.190Z,77.51
2018-05-07T01:43:28.203Z,77.42
2018-05-07T01:44:28.230Z,77.28
2018-05-07T01:45:28.251Z,77.67
2018-05-07T01:46:28.274Z,77.95
2018-05-07T01:47:28.290Z,77.86
2018-05-07T01:48:28.305Z,77.95
2018-05-07T01:49:28.335Z,77.86
2018-05-07T01:50:28.347Z,78.24
2018-05-07T01:51:28.372Z,77.95
2018-05-07T01:52:28.391Z,77.86
2018-05-07T01:53:28.419Z,78.05
2018-05-07T01:54:28.433Z,78.24
2018-05-07T01:55:28.457Z,77.95
2018-05-07T01:56:28.477Z,77.95
2018-05-07T01:57:28.496Z,77.95
2018-05-07T01:58:28.520Z,77.67
2018-05-07T01:59:28.537Z,77.86
2018-05-07T02:00:28.560Z,78.14
2018-05-07T02:01:28.579Z,77.95
2018-05-07T02:02:28.595Z,78.53
2018-05-07T02:03:28.625Z,78.34
2018-05-07T02:04:28.646Z,78.24
2018-05-07T02:05:28.663Z,78.43
2018-05-07T02:06:28.687Z,77.95
2018-05-07T02:07:28.705Z,78.24
2018-05-07T02:08:28.718Z,78.14
2018-05-07T02:09:28.748Z,78.53
2018-05-07T02:10:28.761Z,78.24
2018-05-07T02:11:28.791Z,77.86
2018-05-07T02:12:28.810Z,78.05
2018-05-07T02:13:28.822Z,77.95
2018-05-07T02:14:28.852Z,77.86
2018-05-07T02:15:28.865Z,78.05
2018-05-07T02:16:28.886Z,77.95
2018-05-07T02:17:28.910Z,78.34
2018-05-07T02:18:28.928Z,78.43
2018-05-07T02:19:28.952Z,78.24
2018-05-07T02:20:28.966Z,78.53
2018-05-07T02:21:28.989Z,78.63
2018-05-07T02:22:29.013Z,79.00
2018-05-07T02:23:29.038Z,78.81
2018-05-07T02:24:29.056Z,79.10
2018-05-07T02:25:29.069Z,78.72
2018-05-07T02:26:29.099Z,79.10
2018-05-07T02:27:29.110Z,79.73
2018-05-07T02:28:29.136Z,79.83
2018-05-07T02:29:29.154Z,79.93
2018-05-07T02:30:29.178Z,79.93
2018-05-07T02:31:29.203Z,79.73
2018-05-07T02:32:29.220Z,79.83
2018-05-07T02:33:29.242Z,79.83
2018-05-07T02:34:29.254Z,79.73
2018-05-07T02:35:29.284Z,79.73
2018-05-07T02:36:29.297Z,79.83
2018-05-07T02:37:29.323Z,79.64
2018-05-07T02:38:29.345Z,79.93
2018-05-07T02:39:29.363Z,79.73
2018-05-07T02:40:29.387Z,79.83
2018-05-07T02:41:29.401Z,79.93
2018-05-07T02:42:29.418Z,79.64
2018-05-07T02:43:29.448Z,79.73
2018-05-07T02:44:29.466Z,79.73
2018-05-07T02:45:29.479Z,80.02
2018-05-07T02:46:29.505Z,79.73
2018-05-07T02:47:29.525Z,80.11
2018-05-07T02:48:29.548Z,79.83
2018-05-07T02:49:29.567Z,79.73
2018-05-07T02:50:29.589Z,80.11
2018-05-07T02:51:29.603Z,80.02
2018-05-07T02:52:29.621Z,79.83
2018-05-07T02:53:29.650Z,79.83
2018-05-07T02:54:29.661Z,80.02
2018-05-07T02:55:29.687Z,79.73
2018-05-07T02:56:29.704Z,79.83
2018-05-07T02:57:29.729Z,80.02
2018-05-07T02:58:29.752Z,80.21
2018-05-07T02:59:29.763Z,80.59
2018-05-07T03:00:29.787Z,79.93
2018-05-07T03:01:29.813Z,80.40
2018-05-07T03:02:29.830Z,80.30
2018-05-07T03:03:29.849Z,80.40
2018-05-07T03:04:29.873Z,80.30
2018-05-07T03:05:29.889Z,80.40
2018-05-07T03:06:29.907Z,79.73
2018-05-07T03:07:29.930Z,80.02
2018-05-07T03:08:29.956Z,80.21
2018-05-07T03:09:29.972Z,79.93
2018-05-07T03:10:29.990Z,79.83
2018-05-07T03:11:30.015Z,80.40
2018-05-07T03:12:30.034Z,79.73
2018-05-07T03:13:30.053Z,80.50
2018-05-07T03:14:30.074Z,80.11
2018-05-07T03:15:30.091Z,80.21
2018-05-07T03:16:30.117Z,80.11
2018-05-07T03:17:30.192Z,80.30
2018-05-07T03:18:30.160Z,80.30
2018-05-07T03:19:30.170Z,80.40
2018-05-07T03:20:30.192Z,80.50
2018-05-07T03:21:30.216Z,80.40
2018-05-07T03:22:30.232Z,80.40
2018-05-07T03:23:30.251Z,79.83
2018-05-07T03:24:30.270Z,80.30
2018-05-07T03:25:30.297Z,80.21
2018-05-07T03:26:30.311Z,80.40
2018-05-07T03:27:30.340Z,80.40
2018-05-07T03:28:30.357Z,80.27
2018-05-07T03:29:30.373Z,80.79
2018-05-07T03:30:30.397Z,80.50
2018-05-07T03:31:30.421Z,80.40
2018-05-07T03:32:30.446Z,80.40
2018-05-07T03:33:30.457Z,79.93
2018-05-07T03:34:30.480Z,80.40
2018-05-07T03:35:30.493Z,80.30
2018-05-07T03:36:30.521Z,80.40
2018-05-07T03:37:30.604Z,80.07
2018-05-07T03:38:30.556Z,80.07
2018-05-07T03:39:30.580Z,80.07
2018-05-07T03:40:30.652Z,80.11
2018-05-07T03:41:30.621Z,80.40
2018-05-07T03:42:30.640Z,80.50
2018-05-07T03:43:30.684Z,80.17
2018-05-07T03:44:30.683Z,80.27
2018-05-07T03:45:30.693Z,80.17
2018-05-07T03:46:30.722Z,80.65
2018-05-07T03:47:30.740Z,80.65
2018-05-07T03:48:30.759Z,80.17
2018-05-07T03:49:30.782Z,80.27
2018-05-07T03:50:30.800Z,80.55
2018-05-07T03:51:30.818Z,80.27
2018-05-07T03:52:30.840Z,80.27
2018-05-07T03:53:30.858Z,80.74
2018-05-07T03:54:30.876Z,80.36
2018-05-07T03:55:30.904Z,80.74
2018-05-07T03:56:30.921Z,80.74
2018-05-07T03:57:30.942Z,80.65
2018-05-07T03:58:30.964Z,80.74
2018-05-07T03:59:30.975Z,80.65
2018-05-07T04:00:31.001Z,80.84
2018-05-07T04:01:31.018Z,80.84
2018-05-07T04:02:31.035Z,80.65
2018-05-07T04:03:31.064Z,80.84
2018-05-07T04:04:31.080Z,80.74
2018-05-07T04:05:31.101Z,80.55
2018-05-07T04:06:31.124Z,80.74
2018-05-07T04:07:31.136Z,80.84
2018-05-07T04:08:31.164Z,80.55
2018-05-07T04:09:31.174Z,80.46
2018-05-07T04:10:31.198Z,80.17
2018-05-07T04:11:31.221Z,80.74
2018-05-07T04:12:31.236Z,80.46
2018-05-07T04:13:31.264Z,80.27
2018-05-07T04:14:31.280Z,80.36
2018-05-07T04:15:31.299Z,80.27
2018-05-07T04:16:31.319Z,80.36
2018-05-07T04:17:31.355Z,80.36
2018-05-07T04:18:31.357Z,80.27
2018-05-07T04:19:31.381Z,80.17
2018-05-07T04:20:31.401Z,80.36
2018-05-07T04:21:31.424Z,80.55
2018-05-07T04:22:31.442Z,79.69
2018-05-07T04:23:31.504Z,79.88
2018-05-07T04:24:31.476Z,80.17
2018-05-07T04:25:31.503Z,79.98
2018-05-07T04:26:31.515Z,79.79
2018-05-07T04:27:31.547Z,79.79
2018-05-07T04:28:31.563Z,79.60
2018-05-07T04:29:31.575Z,79.79
2018-05-07T04:30:31.605Z,79.69
2018-05-07T04:31:31.615Z,79.79
2018-05-07T04:32:31.641Z,79.88
2018-05-07T04:33:31.656Z,79.60
2018-05-07T04:34:31.681Z,79.22
2018-05-07T04:35:31.698Z,79.31
2018-05-07T04:36:31.723Z,79.02
2018-05-07T04:37:31.783Z,79.02
2018-05-07T04:38:31.757Z,79.50
2018-05-07T04:39:31.775Z,79.41
2018-05-07T04:40:31.796Z,79.60
2018-05-07T04:41:31.821Z,78.83
2018-05-07T04:42:31.843Z,78.64
2018-05-07T04:43:31.855Z,79.22
2018-05-07T04:44:31.883Z,78.83
2018-05-07T04:45:31.897Z,78.83
2018-05-07T04:46:31.917Z,78.93
2018-05-07T04:47:31.943Z,78.45
2018-05-07T04:48:31.958Z,78.16
2018-05-07T04:49:31.975Z,78.39
2018-05-07T04:50:32.004Z,78.26
2018-05-07T04:51:32.024Z,77.78
2018-05-07T04:52:32.040Z,78.26
2018-05-07T04:53:32.058Z,78.20
2018-05-07T04:54:32.081Z,77.53
2018-05-07T04:55:32.099Z,77.50
2018-05-07T04:56:32.114Z,77.78
2018-05-07T04:57:32.143Z,77.82
2018-05-07T04:58:32.155Z,77.53
2018-05-07T04:59:32.183Z,77.44
2018-05-07T05:00:32.202Z,76.77
2018-05-07T05:01:32.217Z,76.86
2018-05-07T05:02:32.242Z,76.86
2018-05-07T05:03:32.255Z,76.77
2018-05-07T05:04:32.285Z,76.48
2018-05-07T05:05:32.305Z,76.77
2018-05-07T05:06:32.321Z,76.86
2018-05-07T05:07:32.344Z,76.48
2018-05-07T05:08:32.357Z,76.20
2018-05-07T05:09:32.381Z,76.48
2018-05-07T05:10:32.403Z,76.39
2018-05-07T05:11:32.416Z,76.00
2018-05-07T05:12:32.437Z,75.52
2018-05-07T05:13:32.461Z,75.52
2018-05-07T05:14:32.484Z,75.52
2018-05-07T05:15:32.496Z,75.91
2018-05-07T05:16:32.521Z,75.66
2018-05-07T05:17:32.538Z,75.24
2018-05-07T05:18:32.556Z,74.80
2018-05-07T05:19:32.584Z,74.85
2018-05-07T05:20:32.598Z,75.09
2018-05-07T05:21:32.705Z,74.90
2018-05-07T05:22:32.638Z,74.13
2018-05-07T05:23:32.662Z,72.92
2018-05-07T05:24:32.688Z,71.91
2018-05-07T05:25:32.700Z,70.95
2018-05-07T05:26:32.722Z,69.64
2018-05-07T05:27:32.739Z,68.59
2018-05-07T05:28:32.756Z,68.21
2018-05-07T05:29:32.786Z,68.05
2018-05-07T05:30:32.803Z,66.89
2018-05-07T05:31:32.822Z,67.09
2018-05-07T05:32:32.847Z,66.61
2018-05-07T05:33:32.860Z,66.22
2018-05-07T05:34:32.886Z,65.84
2018-05-07T05:35:32.907Z,65.68
2018-05-07T05:36:32.922Z,65.68
2018-05-07T05:37:32.954Z,64.82
2018-05-07T05:38:32.963Z,64.82
2018-05-07T05:39:32.989Z,64.63
2018-05-07T05:40:33.015Z,64.25
2018-05-07T05:41:33.037Z,63.29
2018-05-07T05:42:33.057Z,63.70
2018-05-07T05:43:33.126Z,63.32
2018-05-07T05:44:33.102Z,62.74
2018-05-07T05:45:33.113Z,63.22
2018-05-07T05:46:33.143Z,62.26
2018-05-07T05:47:33.157Z,62.16
2018-05-07T05:48:33.178Z,62.07
2018-05-07T05:49:33.208Z,61.72
2018-05-07T05:50:33.222Z,61.24
2018-05-07T05:51:33.253Z,60.47
2018-05-07T05:52:33.273Z,62.10
2018-05-07T05:53:33.287Z,60.60
2018-05-07T05:54:33.321Z,62.01
2018-05-07T05:55:33.332Z,60.60
2018-05-07T05:56:33.354Z,60.60
2018-05-07T05:57:33.384Z,61.65
2018-05-07T05:58:33.404Z,59.44
2018-05-07T05:59:33.425Z,60.43
2018-05-07T06:00:33.443Z,60.34
2018-05-07T06:01:33.474Z,60.46
2018-05-07T06:02:33.499Z,58.64
2018-05-07T06:03:33.515Z,56.71
2018-05-07T06:04:33.541Z,58.45
2018-05-07T06:05:33.557Z,56.71
2018-05-07T06:06:33.583Z,58.37
2018-05-07T06:07:33.609Z,56.55
2018-05-07T06:08:33.631Z,56.45
2018-05-07T06:09:33.652Z,55.98
2018-05-07T06:10:33.672Z,56.16
2018-05-07T06:11:33.700Z,55.59
2018-05-07T06:12:33.725Z,55.30
2018-05-07T06:13:33.743Z,54.05
2018-05-07T06:14:33.857Z,54.53
2018-05-07T06:15:33.789Z,54.36
2018-05-07T06:16:33.882Z,53.88
2018-05-07T06:17:33.844Z,54.08
2018-05-07T06:18:33.868Z,54.63
2018-05-07T06:19:33.884Z,54.31
2018-05-07T06:20:33.914Z,54.99
2018-05-07T06:21:33.933Z,54.91
2018-05-07T06:22:33.956Z,54.14
2018-05-07T06:23:33.989Z,53.96
2018-05-07T06:24:34.012Z,54.14
2018-05-07T06:25:34.028Z,54.05
2018-05-07T06:26:34.061Z,54.08
2018-05-07T06:27:34.083Z,52.92
2018-05-07T06:28:34.104Z,52.73
2018-05-07T06:29:34.128Z,52.73
2018-05-07T06:30:34.150Z,52.73
2018-05-07T06:31:34.183Z,52.92
2018-05-07T06:32:34.199Z,52.08
2018-05-07T06:33:34.232Z,51.89
2018-05-07T06:34:34.248Z,51.41
2018-05-07T06:35:34.282Z,51.14
2018-05-07T06:36:34.308Z,50.66
2018-05-07T06:37:34.323Z,49.79
2018-05-07T06:38:34.356Z,50.83
2018-05-07T06:39:34.374Z,51.76
2018-05-07T06:40:34.399Z,51.76
2018-05-07T06:41:34.428Z,51.76
2018-05-07T06:42:34.449Z,52.34
2018-05-07T06:43:34.476Z,52.08
2018-05-07T06:44:34.507Z,50.83
2018-05-07T06:45:34.530Z,51.86
2018-05-07T06:46:34.554Z,52.12
2018-05-07T06:47:34.595Z,52.95
2018-05-07T06:48:34.604Z,50.95
2018-05-07T06:49:34.631Z,49.79
2018-05-07T06:50:34.654Z,49.73
2018-05-07T06:51:34.683Z,48.66
2018-05-07T06:52:34.713Z,48.57
2018-05-07T06:53:34.733Z,47.82
2018-05-07T06:54:34.760Z,47.89
2018-05-07T06:55:34.784Z,47.89
2018-05-07T06:56:34.815Z,48.66
2018-05-07T06:57:34.846Z,49.22
2018-05-07T06:58:34.861Z,48.93
2018-05-07T06:59:34.885Z,49.70
2018-05-07T07:00:34.911Z,49.43
2018-05-07T07:01:34.946Z,48.59
2018-05-07T07:02:35.067Z,47.27
2018-05-07T07:03:35.005Z,46.66
2018-05-07T07:04:35.017Z,46.40
2018-05-07T07:05:35.054Z,45.92
2018-05-07T07:06:35.070Z,45.26
2018-05-07T07:07:35.105Z,45.17
2018-05-07T07:08:35.299Z,45.55
2018-05-07T07:09:35.149Z,45.24
2018-05-07T07:10:35.185Z,45.34
2018-05-07T07:11:35.204Z,45.53
2018-05-07T07:12:35.233Z,45.84
2018-05-07T07:13:35.268Z,45.65
2018-05-07T07:14:35.285Z,45.26
2018-05-07T07:15:35.317Z,45.45
2018-05-07T07:16:35.341Z,45.07
2018-05-07T07:17:35.365Z,44.03
2018-05-07T07:18:35.396Z,43.54
2018-05-07T07:19:35.428Z,43.64
2018-05-07T07:20:35.458Z,43.66
2018-05-07T07:21:35.479Z,42.50
2018-05-07T07:22:35.508Z,42.50
2018-05-07T07:23:35.539Z,42.87
2018-05-07T07:24:35.559Z,44.46
2018-05-07T07:25:35.597Z,45.14
2018-05-07T07:26:35.625Z,44.51
2018-05-07T07:27:35.647Z,43.84
2018-05-07T07:28:35.674Z,43.57
2018-05-07T07:29:35.708Z,42.60
2018-05-07T07:30:35.737Z,42.52
2018-05-07T07:31:35.763Z,41.94
2018-05-07T07:32:35.784Z,42.68
2018-05-07T07:33:35.814Z,43.62
2018-05-07T07:34:35.847Z,44.76
2018-05-07T07:35:35.876Z,43.93
2018-05-07T07:36:35.906Z,42.70
2018-05-07T07:37:35.930Z,42.41
2018-05-07T07:38:35.955Z,41.36
2018-05-07T07:39:35.994Z,41.35
2018-05-07T07:40:36.014Z,41.73
2018-05-07T07:41:36.046Z,42.60
2018-05-07T07:42:36.077Z,42.62
2018-05-07T07:43:36.100Z,41.66
2018-05-07T07:44:36.137Z,40.83
2018-05-07T07:45:36.155Z,39.76
2018-05-07T07:46:36.187Z,39.59
2018-05-07T07:47:36.218Z,39.11
2018-05-07T07:48:36.242Z,39.01
2018-05-07T07:49:36.281Z,38.73
2018-05-07T07:50:36.307Z,38.93
2018-05-07T07:51:36.331Z,39.03
2018-05-07T07:52:36.357Z,38.54
2018-05-07T07:53:36.419Z,38.71
2018-05-07T07:54:36.422Z,39.20
2018-05-07T07:55:36.448Z,38.73
2018-05-07T07:56:36.483Z,37.65
2018-05-07T07:57:36.506Z,37.85
2018-05-07T07:58:36.537Z,37.57
2018-05-07T07:59:36.570Z,37.57
2018-05-07T08:00:36.593Z,37.40
2018-05-07T08:01:36.691Z,37.28
2018-05-07T08:02:36.657Z,36.82
2018-05-07T08:03:36.697Z,37.03
2018-05-07T08:04:36.733Z,36.44
2018-05-07T08:05:36.743Z,36.16
2018-05-07T08:06:36.781Z,35.86
2018-05-07T08:07:36.808Z,35.94
2018-05-07T08:08:36.836Z,35.94
2018-05-07T08:09:36.870Z,36.04
2018-05-07T08:10:36.902Z,36.24
2018-05-07T08:11:36.925Z,36.25
2018-05-07T08:12:36.961Z,36.06
2018-05-07T08:13:36.987Z,35.78
2018-05-07T08:14:37.016Z,35.61
2018-05-07T08:15:37.054Z,35.11
2018-05-07T08:16:37.087Z,34.93
2018-05-07T08:17:37.108Z,34.91
2018-05-07T08:18:37.145Z,35.22
2018-05-07T08:19:37.181Z,34.36
2018-05-07T08:20:37.327Z,33.88
2018-05-07T08:21:37.238Z,33.88
2018-05-07T08:22:37.267Z,34.17
2018-05-07T08:23:37.294Z,34.46
2018-05-07T08:24:37.394Z,34.44
2018-05-07T08:25:37.365Z,34.27
2018-05-07T08:26:37.389Z,34.28
2018-05-07T08:27:37.419Z,34.11
2018-05-07T08:28:37.454Z,33.43
2018-05-07T08:29:37.480Z,33.22
2018-05-07T08:30:37.511Z,33.76
2018-05-07T08:31:37.546Z,35.21
2018-05-07T08:32:37.577Z,36.16
2018-05-07T08:33:37.604Z,36.44
2018-05-07T08:34:37.640Z,35.98
2018-05-07T08:35:37.676Z,35.41
2018-05-07T08:36:37.717Z,35.03
2018-05-07T08:37:37.740Z,33.98
2018-05-07T08:38:37.769Z,33.90
2018-05-07T08:39:37.794Z,33.53
2018-05-07T08:40:37.824Z,33.64
2018-05-07T08:41:37.860Z,32.08
2018-05-07T08:42:37.887Z,31.88
2018-05-07T08:43:37.924Z,32.45
2018-05-07T08:44:37.953Z,32.08
2018-05-07T08:45:37.982Z,32.73
2018-05-07T08:46:38.020Z,32.94
2018-05-07T08:47:38.046Z,32.55
2018-05-07T08:48:38.161Z,32.49
2018-05-07T08:49:38.173Z,31.70
2018-05-07T08:50:38.141Z,31.79
2018-05-07T08:51:38.175Z,31.41
2018-05-07T08:52:38.206Z,31.29
2018-05-07T08:53:38.241Z,31.38
2018-05-07T08:54:38.269Z,31.21
2018-05-07T08:55:38.300Z,30.72
2018-05-07T08:56:38.333Z,32.41
2018-05-07T08:57:38.363Z,32.91
2018-05-07T08:58:38.391Z,33.78
2018-05-07T08:59:38.435Z,33.47
2018-05-07T09:00:38.460Z,33.31
2018-05-07T09:01:38.491Z,31.29
2018-05-07T09:02:38.528Z,30.91
2018-05-07T09:03:38.549Z,30.58
2018-05-07T09:04:38.588Z,31.92
2018-05-07T09:05:38.623Z,32.04
2018-05-07T09:06:38.645Z,31.94
2018-05-07T09:07:38.685Z,31.57
2018-05-07T09:08:38.716Z,32.52
2018-05-07T09:09:38.750Z,32.91
2018-05-07T09:10:38.781Z,32.32
2018-05-07T09:11:38.804Z,32.05
2018-05-07T09:12:38.841Z,31.77
2018-05-07T09:13:38.887Z,31.22
2018-05-07T09:14:38.901Z,29.88
2018-05-07T09:15:38.935Z,29.10
2018-05-07T09:16:38.969Z,28.72
2018-05-07T09:17:38.999Z,27.66
2018-05-07T09:18:39.030Z,27.39
2018-05-07T09:19:39.063Z,27.09
2018-05-07T09:20:39.098Z,27.45
2018-05-07T09:21:39.120Z,27.66
2018-05-07T09:22:39.162Z,27.94
2018-05-07T09:23:39.196Z,28.04
2018-05-07T09:24:39.268Z,27.95
2018-05-07T09:25:39.258Z,27.76
2018-05-07T09:26:39.293Z,26.87
2018-05-07T09:27:39.314Z,28.32
2018-05-07T09:28:39.353Z,28.72
2018-05-07T09:29:39.383Z,27.95
2018-05-07T09:30:39.408Z,27.29
2018-05-07T09:31:39.527Z,27.29
2018-05-07T09:32:39.479Z,26.23
2018-05-07T09:33:39.510Z,26.04
2018-05-07T09:34:39.552Z,25.73
2018-05-07T09:35:39.573Z,27.54
2018-05-07T09:36:39.610Z,28.00
2018-05-07T09:37:39.637Z,28.88
2018-05-07T09:38:39.679Z,28.40
2018-05-07T09:39:39.707Z,28.42
2018-05-07T09:40:39.741Z,27.65
2018-05-07T09:41:39.770Z,26.61
2018-05-07T09:42:39.804Z,25.35
2018-05-07T09:43:39.829Z,25.64
2018-05-07T09:44:39.868Z,25.74
2018-05-07T09:45:39.893Z,26.68
2018-05-07T09:46:39.942Z,26.79
2018-05-07T09:47:39.962Z,26.31
2018-05-07T09:48:39.988Z,25.42
2018-05-07T09:49:40.029Z,25.42
2018-05-07T09:50:40.060Z,26.09
2018-05-07T09:51:40.090Z,26.67
2018-05-07T09:52:40.125Z,26.08
2018-05-07T09:53:40.155Z,25.98
2018-05-07T09:54:40.189Z,25.70
2018-05-07T09:55:40.215Z,25.43
2018-05-07T09:56:40.326Z,25.54
2018-05-07T09:57:40.288Z,25.36
2018-05-07T09:58:40.313Z,24.40
2018-05-07T09:59:40.354Z,25.82
2018-05-07T10:00:40.384Z,26.21
2018-05-07T10:01:40.415Z,26.03
2018-05-07T10:02:40.443Z,25.65
2018-05-07T10:03:40.485Z,25.56
2018-05-07T10:04:40.511Z,23.52
2018-05-07T10:05:40.547Z,23.83
2018-05-07T10:06:40.583Z,23.24
2018-05-07T10:07:40.604Z,23.14
2018-05-07T10:08:40.641Z,23.14
2018-05-07T10:09:40.677Z,22.36
2018-05-07T10:10:40.712Z,22.35
2018-05-07T10:11:40.742Z,21.67
2018-05-07T10:12:40.769Z,21.68
2018-05-07T10:13:40.808Z,22.17
2018-05-07T10:14:40.843Z,21.68
2018-05-07T10:15:40.864Z,22.27
2018-05-07T10:16:40.907Z,22.17
2018-05-07T10:17:40.934Z,22.76
2018-05-07T10:18:40.967Z,23.05
2018-05-07T10:19:41.003Z,22.86
2018-05-07T10:20:41.030Z,22.94
2018-05-07T10:21:41.070Z,23.97
2018-05-07T10:22:41.101Z,25.26
2018-05-07T10:23:41.150Z,24.19
2018-05-07T10:24:41.168Z,23.80
2018-05-07T10:25:41.193Z,23.82
2018-05-07T10:26:41.230Z,23.34
2018-05-07T10:27:41.265Z,23.54
2018-05-07T10:28:41.298Z,23.35
2018-05-07T10:29:41.340Z,23.73
2018-05-07T10:30:41.357Z,24.32
2018-05-07T10:31:41.400Z,24.13
2018-05-07T10:32:41.424Z,24.02
2018-05-07T10:33:41.466Z,24.89
2018-05-07T10:34:41.491Z,23.82
2018-05-07T10:35:41.533Z,23.73
2018-05-07T10:36:41.564Z,23.64
2018-05-07T10:37:41.595Z,23.33
2018-05-07T10:38:41.631Z,24.22
2018-05-07T10:39:41.665Z,24.50
2018-05-07T10:40:41.688Z,24.03
2018-05-07T10:41:41.729Z,23.64
2018-05-07T10:42:41.765Z,23.34
2018-05-07T10:43:41.792Z,23.73
2018-05-07T10:44:41.824Z,23.43
2018-05-07T10:45:41.855Z,24.32
2018-05-07T10:46:41.893Z,24.32
2018-05-07T10:47:41.925Z,23.94
2018-05-07T10:48:41.955Z,22.50
2018-05-07T10:49:41.996Z,22.31
2018-05-07T10:50:42.024Z,22.86
2018-05-07T10:51:42.063Z,23.94
2018-05-07T10:52:42.091Z,24.04
2018-05-07T10:53:42.126Z,24.14
2018-05-07T10:54:42.162Z,23.94
2018-05-07T10:55:42.187Z,23.65
2018-05-07T10:56:42.226Z,23.18
2018-05-07T10:57:42.251Z,23.08
2018-05-07T10:58:42.289Z,23.76
2018-05-07T10:59:42.319Z,22.70
2018-05-07T11:00:42.349Z,22.98
2018-05-07T11:01:42.426Z,23.46
2018-05-07T11:02:42.422Z,23.68
2018-05-07T11:03:42.452Z,22.60
2018-05-07T11:04:42.484Z,22.50
2018-05-07T11:05:42.525Z,22.00
2018-05-07T11:06:42.556Z,21.62
2018-05-07T11:07:42.586Z,21.73
2018-05-07T11:08:42.623Z,20.86
2018-05-07T11:09:42.649Z,21.04
2018-05-07T11:10:42.685Z,20.56
2018-05-07T11:11:42.722Z,21.44
2018-05-07T11:12:42.789Z,21.42
2018-05-07T11:13:42.786Z,22.88
2018-05-07T11:14:42.822Z,24.46
2018-05-07T11:15:42.858Z,22.85
2018-05-07T11:16:42.884Z,24.02
2018-05-07T11:17:42.915Z,24.22
2018-05-07T11:18:42.954Z,25.10
2018-05-07T11:19:43.055Z,24.51
2018-05-07T11:20:43.019Z,24.14
2018-05-07T11:21:43.055Z,23.36
2018-05-07T11:22:43.085Z,23.07
2018-05-07T11:23:43.122Z,22.67
2018-05-07T11:24:43.153Z,23.03
2018-05-07T11:25:43.185Z,23.72
2018-05-07T11:26:43.221Z,23.82
2018-05-07T11:27:43.251Z,25.32
2018-05-07T11:28:43.284Z,26.14
2018-05-07T11:29:43.321Z,24.71
2018-05-07T11:30:43.350Z,24.71
2018-05-07T11:31:43.384Z,24.22
2018-05-07T11:32:43.419Z,24.12
2018-05-07T11:33:43.502Z,23.05
2018-05-07T11:34:44.230Z,24.22
2018-05-07T11:35:43.597Z,22.67
2018-05-07T11:36:43.599Z,23.44
2018-05-07T11:37:44.164Z,23.05
2018-05-07T11:38:44.027Z,23.44
2018-05-07T11:39:43.808Z,24.00
2018-05-07T11:40:44.579Z,25.54
2018-05-07T11:41:43.772Z,25.43
2018-05-07T11:42:44.165Z,25.25
2018-05-07T11:43:43.918Z,24.67
2018-05-07T11:44:43.852Z,24.96
2018-05-07T11:45:44.110Z,26.12
2018-05-07T11:46:43.950Z,26.14
2018-05-07T11:47:44.577Z,24.11
2018-05-07T11:48:44.000Z,23.71
2018-05-07T11:49:44.012Z,23.34
2018-05-07T11:50:44.055Z,22.37
2018-05-07T11:51:44.697Z,22.58
2018-05-07T11:52:44.662Z,21.80
2018-05-07T11:53:44.791Z,21.03
2018-05-07T11:54:44.657Z,21.78
2018-05-07T11:55:44.870Z,22.63
2018-05-07T11:56:44.887Z,22.94
2018-05-07T11:57:44.851Z,22.92
2018-05-07T11:58:44.809Z,22.84
2018-05-07T11:59:44.344Z,22.95
2018-05-07T12:00:44.858Z,22.96
2018-05-07T12:01:45.140Z,22.37
2018-05-07T12:02:44.904Z,22.75
2018-05-07T12:03:45.527Z,21.88
2018-05-07T12:04:45.004Z,21.78
2018-05-07T12:05:44.588Z,21.48
2018-05-07T12:06:45.122Z,21.88
2018-05-07T12:07:44.601Z,21.49
2018-05-07T12:08:44.643Z,21.70
2018-05-07T12:09:45.254Z,21.69
2018-05-07T12:10:44.694Z,21.70
2018-05-07T12:11:45.084Z,21.80
2018-05-07T12:12:45.292Z,21.49
2018-05-07T12:13:44.848Z,21.88
2018-05-07T12:14:45.359Z,21.88
2018-05-07T12:15:44.908Z,22.08
2018-05-07T12:16:45.352Z,21.78
2018-05-07T12:17:45.264Z,21.88
2018-05-07T12:18:45.395Z,21.10
2018-05-07T12:19:45.381Z,21.49
2018-05-07T12:20:45.453Z,21.88
2018-05-07T12:21:45.160Z,21.11
2018-05-07T12:22:45.601Z,22.16
2018-05-07T12:23:45.686Z,23.40
2018-05-07T12:24:45.685Z,24.08
2018-05-07T12:25:45.757Z,24.39
2018-05-07T12:26:45.246Z,23.73
2018-05-07T12:27:45.213Z,23.44
2018-05-07T12:28:45.242Z,23.73
2018-05-07T12:29:45.265Z,23.35
2018-05-07T12:30:45.310Z,23.25
2018-05-07T12:31:45.443Z,22.77
2018-05-07T12:32:45.369Z,22.56
2018-05-07T12:33:45.399Z,22.48
2018-05-07T12:34:45.427Z,22.09
2018-05-07T12:35:45.470Z,22.31
2018-05-07T12:36:45.500Z,21.91
2018-05-07T12:37:45.538Z,21.72
2018-05-07T12:38:45.558Z,21.22
2018-05-07T12:39:45.593Z,21.00
2018-05-07T12:40:45.621Z,22.05
2018-05-07T12:41:45.658Z,22.62
2018-05-07T12:42:45.703Z,22.06
2018-05-07T12:43:45.721Z,22.25
2018-05-07T12:44:45.754Z,22.42
2018-05-07T12:45:45.782Z,22.83
2018-05-07T12:46:45.879Z,22.53
2018-05-07T12:47:45.847Z,22.92
2018-05-07T12:48:45.879Z,23.03
2018-05-07T12:49:45.913Z,23.05
2018-05-07T12:50:45.947Z,22.96
2018-05-07T12:51:46.024Z,22.48
2018-05-07T12:52:46.059Z,22.48